Terminal Aerodrome Forecast
Issued by NWS

Home | Current Version | Previous Version | Text Only | Print | Product List | Glossary On
Versions: 1 2 3 4 5 6 7 8 9 10 11 12 13 14 15 16 17
628
FTUS46 KLOX 231734
TAFSBA
TAF
KSBA 231734Z 2318/2418 20005KT P6SM SCT017 OVC035
     FM232100 21006KT P6SM BKN035
     FM240100 26007KT P6SM BKN025
     FM240500 VRB03KT P6SM OVC020
     FM240900 VRB03KT P6SM OVC015
     FM241600 10005KT P6SM OVC020=

USA.gov is the U.S. government's official web portal to all federal, state and local government web resources and services.